Terminal Aerodrome Forecast
Issued by NWS Sioux Falls, SD

Home | Current Version | Previous Version | Text Only | Print | Product List | Glossary On
Versions: 1 2 3 4 5 6 7 8 9 10 11 12 13 14 15 16 17 18 19 20
336
FTUS43 KFSD 161722
TAFFSD
TAF
KFSD 161722Z 1618/1718 11005KT 5SM SHRA VCTS SCT009 OVC030CB
     FM162100 32010KT 4SM SHRA VCTS OVC010CB
     FM170100 31011KT P6SM VCSH OVC015
     FM170600 30011KT P6SM VCSH OVC015
     FM170800 30012KT P6SM OVC010
     FM171300 31012KT P6SM SCT015=

USA.gov is the U.S. government's official web portal to all federal, state and local government web resources and services.